createdAt,value
2022-11-27T00:02:25.910Z,78.59
2022-11-27T00:04:52.624Z,79.11
2022-11-27T00:07:19.326Z,79.31
2022-11-27T00:09:46.027Z,78.61
2022-11-27T00:12:12.838Z,78.20
2022-11-27T00:14:39.514Z,78.39
2022-11-27T00:17:09.162Z,78.33
2022-11-27T00:19:35.884Z,78.29
2022-11-27T00:22:02.577Z,77.80
2022-11-27T00:24:29.200Z,78.06
2022-11-27T00:26:58.963Z,77.88
2022-11-27T00:29:29.176Z,77.77
2022-11-27T00:31:56.504Z,77.95
2022-11-27T00:34:23.278Z,77.91
2022-11-27T00:36:49.969Z,78.73
2022-11-27T00:39:16.772Z,78.54
2022-11-27T00:41:43.469Z,78.87
2022-11-27T00:44:10.328Z,78.93
2022-11-27T00:46:37.076Z,79.56
2022-11-27T00:49:06.982Z,80.02
2022-11-27T00:51:33.706Z,80.01
2022-11-27T00:54:03.554Z,80.08
2022-11-27T00:56:32.685Z,80.15
2022-11-27T00:58:59.964Z,80.29
2022-11-27T01:01:27.918Z,79.98
2022-11-27T01:03:56.245Z,80.33
2022-11-27T01:06:27.284Z,80.42
2022-11-27T01:08:54.347Z,80.23
2022-11-27T01:11:23.529Z,80.26
2022-11-27T01:13:50.315Z,80.68
2022-11-27T01:16:21.149Z,81.00
2022-11-27T01:18:49.072Z,80.95
2022-11-27T01:21:17.793Z,80.84
2022-11-27T01:23:48.490Z,81.39
2022-11-27T01:26:16.137Z,81.75
2022-11-27T01:28:42.845Z,81.98
2022-11-27T01:31:17.274Z,81.00
2022-11-27T01:33:45.159Z,81.04
2022-11-27T01:36:13.626Z,81.14
2022-11-27T01:38:40.341Z,80.82
2022-11-27T01:41:20.503Z,80.51
2022-11-27T01:43:56.381Z,79.81
2022-11-27T01:46:28.931Z,79.31
2022-11-27T01:49:09.795Z,79.23
2022-11-27T01:51:52.112Z,78.82
2022-11-27T01:54:19.511Z,77.94
2022-11-27T01:56:49.246Z,77.25
2022-11-27T01:59:17.346Z,77.20
2022-11-27T02:01:44.120Z,76.80
2022-11-27T02:04:14.609Z,76.76
2022-11-27T02:06:41.256Z,76.94
2022-11-27T02:09:07.989Z,76.83
2022-11-27T02:11:44.460Z,76.34
2022-11-27T02:14:17.480Z,75.88
2022-11-27T02:16:53.564Z,75.48
2022-11-27T02:19:57.282Z,75.30
2022-11-27T02:22:39.624Z,75.38
2022-11-27T02:25:29.286Z,75.57
2022-11-27T02:28:25.379Z,75.51
2022-11-27T02:31:00.628Z,75.22
2022-11-27T02:33:29.468Z,75.16
2022-11-27T02:36:03.880Z,75.47
2022-11-27T02:38:41.226Z,74.99
2022-11-27T02:41:38.895Z,75.65
2022-11-27T02:44:07.959Z,75.25
2022-11-27T02:46:34.835Z,75.49
2022-11-27T02:49:05.384Z,75.20
2022-11-27T02:51:42.740Z,75.63
2022-11-27T02:54:17.919Z,75.58
2022-11-27T02:56:48.357Z,75.10
2022-11-27T02:59:16.987Z,75.20
2022-11-27T03:01:48.054Z,75.17
2022-11-27T03:04:18.547Z,76.45
2022-11-27T03:06:53.019Z,76.69
2022-11-27T03:09:24.500Z,76.67
2022-11-27T03:11:54.410Z,76.66
2022-11-27T03:14:24.661Z,77.17
2022-11-27T03:17:28.239Z,77.25
2022-11-27T03:19:56.153Z,77.29
2022-11-27T03:22:23.142Z,77.39
2022-11-27T03:24:50.155Z,78.01
2022-11-27T03:27:26.639Z,78.31
2022-11-27T03:29:56.875Z,77.93
2022-11-27T03:32:24.345Z,77.80
2022-11-27T03:34:51.095Z,78.43
2022-11-27T03:37:18.094Z,78.11
2022-11-27T03:39:44.930Z,77.79
2022-11-27T03:42:30.578Z,77.66
2022-11-27T03:45:06.582Z,77.79
2022-11-27T03:47:50.698Z,77.70
2022-11-27T03:50:29.625Z,78.56
2022-11-27T03:53:20.264Z,78.98
2022-11-27T03:55:54.822Z,78.79
2022-11-27T03:58:30.345Z,78.67
2022-11-27T04:00:57.818Z,78.69
2022-11-27T04:03:27.804Z,78.45
2022-11-27T04:05:54.519Z,77.69
2022-11-27T04:08:21.327Z,77.71
2022-11-27T04:10:48.048Z,78.52
2022-11-27T04:13:17.682Z,78.80
2022-11-27T04:15:44.388Z,79.13
2022-11-27T04:18:11.224Z,78.98
2022-11-27T04:20:37.854Z,78.59
2022-11-27T04:23:04.544Z,78.26
2022-11-27T04:25:31.224Z,77.47
2022-11-27T04:28:00.966Z,77.64
2022-11-27T04:30:27.572Z,77.55
2022-11-27T04:32:54.242Z,77.47
2022-11-27T04:35:20.971Z,78.16
2022-11-27T04:37:47.564Z,78.30
2022-11-27T04:40:14.508Z,78.44
2022-11-27T04:42:41.127Z,77.54
2022-11-27T04:45:08.849Z,78.29
2022-11-27T04:47:35.657Z,77.54
2022-11-27T04:50:02.320Z,77.04
2022-11-27T04:52:28.937Z,76.93
2022-11-27T04:55:00.025Z,76.58
2022-11-27T04:57:27.321Z,76.36
2022-11-27T04:59:53.976Z,76.18
2022-11-27T05:02:20.623Z,75.81
2022-11-27T05:04:47.255Z,75.08
2022-11-27T05:07:13.998Z,74.80
2022-11-27T05:09:40.629Z,75.03
2022-11-27T05:12:07.343Z,75.96
2022-11-27T05:14:33.960Z,76.13
2022-11-27T05:17:00.894Z,75.34
2022-11-27T05:19:29.162Z,74.37
2022-11-27T05:21:56.002Z,74.40
2022-11-27T05:24:24.307Z,73.79
2022-11-27T05:26:51.648Z,74.26
2022-11-27T05:29:19.128Z,73.88
2022-11-27T05:31:46.126Z,74.34
2022-11-27T05:34:13.092Z,73.86
2022-11-27T05:36:39.738Z,73.63
2022-11-27T05:39:07.582Z,73.17
2022-11-27T05:41:41.775Z,73.97
2022-11-27T05:44:11.655Z,73.52
2022-11-27T05:46:38.355Z,74.12
2022-11-27T05:49:06.366Z,74.28
2022-11-27T05:51:32.987Z,74.89
2022-11-27T05:53:59.662Z,75.25
2022-11-27T05:56:26.302Z,75.24
2022-11-27T05:58:52.995Z,75.78
2022-11-27T06:01:19.700Z,75.61
2022-11-27T06:03:46.543Z,74.78
2022-11-27T06:06:16.034Z,75.50
2022-11-27T06:08:42.889Z,74.64
2022-11-27T06:11:11.702Z,74.33
2022-11-27T06:13:38.722Z,74.19
2022-11-27T06:16:11.772Z,74.30
2022-11-27T06:18:39.115Z,73.92
2022-11-27T06:21:10.739Z,73.95
2022-11-27T06:23:41.680Z,73.37
2022-11-27T06:26:20.181Z,73.75
2022-11-27T06:28:49.289Z,73.53
2022-11-27T06:31:21.175Z,73.58
2022-11-27T06:33:49.731Z,73.41
2022-11-27T06:36:17.307Z,73.59
2022-11-27T06:38:44.121Z,74.06
2022-11-27T06:41:21.763Z,74.01
2022-11-27T06:43:48.557Z,74.32
2022-11-27T06:46:17.742Z,74.98
2022-11-27T06:48:46.985Z,74.54
2022-11-27T06:51:15.645Z,74.33
2022-11-27T06:53:42.772Z,74.27
2022-11-27T06:56:11.872Z,74.28
2022-11-27T06:58:42.094Z,74.06
2022-11-27T07:01:14.938Z,74.37
2022-11-27T07:03:41.848Z,74.69
2022-11-27T07:06:11.057Z,74.20
2022-11-27T07:08:37.916Z,73.68
2022-11-27T07:11:09.307Z,74.35
2022-11-27T07:13:36.098Z,74.53
2022-11-27T07:16:04.689Z,74.78
2022-11-27T07:18:35.322Z,75.14
2022-11-27T07:21:02.149Z,75.30
2022-11-27T07:23:28.823Z,75.60
2022-11-27T07:25:55.518Z,76.01
2022-11-27T07:28:25.552Z,76.67
2022-11-27T07:30:56.058Z,75.98
2022-11-27T07:33:25.956Z,76.17
2022-11-27T07:36:13.395Z,76.56
2022-11-27T07:38:40.374Z,76.14
2022-11-27T07:41:07.487Z,76.00
2022-11-27T07:43:34.617Z,75.79
2022-11-27T07:46:05.668Z,76.32
2022-11-27T07:48:32.418Z,76.18
2022-11-27T07:50:59.107Z,76.17
2022-11-27T07:53:25.718Z,75.93
2022-11-27T07:55:52.380Z,75.86
2022-11-27T07:58:19.056Z,75.80
2022-11-27T08:00:45.646Z,75.84
2022-11-27T08:03:12.303Z,76.66
2022-11-27T08:05:39.107Z,76.13
2022-11-27T08:08:05.796Z,76.63
2022-11-27T08:10:35.650Z,76.88
2022-11-27T08:13:06.115Z,77.14
2022-11-27T08:15:33.334Z,76.85
2022-11-27T08:18:00.055Z,76.20
2022-11-27T08:20:27.321Z,77.11
2022-11-27T08:22:58.132Z,76.99
2022-11-27T08:25:27.868Z,76.42
2022-11-27T08:27:54.838Z,77.02
2022-11-27T08:30:23.854Z,76.27
2022-11-27T08:32:50.900Z,76.72
2022-11-27T08:35:17.713Z,75.84
2022-11-27T08:37:47.567Z,75.50
2022-11-27T08:40:14.273Z,76.02
2022-11-27T08:42:41.086Z,76.12
2022-11-27T08:45:08.535Z,75.08
2022-11-27T08:47:35.184Z,75.22
2022-11-27T08:50:02.238Z,75.81
2022-11-27T08:52:28.957Z,76.37
2022-11-27T08:54:57.800Z,76.26
2022-11-27T08:57:25.203Z,76.13
2022-11-27T08:59:51.927Z,75.56
2022-11-27T09:02:18.693Z,74.24
2022-11-27T09:04:45.474Z,73.63
2022-11-27T09:07:14.823Z,74.26
2022-11-27T09:09:41.544Z,73.86
2022-11-27T09:12:08.146Z,73.25
2022-11-27T09:14:34.885Z,73.98
2022-11-27T09:17:01.548Z,73.97
2022-11-27T09:19:31.261Z,74.45
2022-11-27T09:21:59.689Z,73.61
2022-11-27T09:24:26.417Z,73.31
2022-11-27T09:26:53.092Z,74.55
2022-11-27T09:29:19.759Z,74.58
2022-11-27T09:31:46.472Z,74.16
2022-11-27T09:34:13.317Z,73.39
2022-11-27T09:36:40.089Z,72.56
2022-11-27T09:39:06.925Z,72.66
2022-11-27T09:41:41.975Z,72.69
2022-11-27T09:44:43.132Z,72.51
2022-11-27T09:47:22.310Z,72.35
2022-11-27T09:49:58.183Z,72.36
2022-11-27T09:52:34.099Z,70.56
2022-11-27T09:55:03.989Z,70.92
2022-11-27T09:57:37.022Z,71.88
2022-11-27T10:00:10.577Z,70.17
2022-11-27T10:02:37.467Z,70.48
2022-11-27T10:05:15.498Z,71.01
2022-11-27T10:08:18.154Z,71.16
2022-11-27T10:10:50.640Z,70.49
2022-11-27T10:14:02.839Z,70.77
2022-11-27T10:16:44.521Z,70.54
2022-11-27T10:19:27.202Z,71.55
2022-11-27T10:22:00.877Z,68.86
2022-11-27T10:24:39.950Z,69.81
2022-11-27T10:27:35.585Z,68.90
2022-11-27T10:30:04.799Z,66.89
2022-11-27T10:32:54.709Z,65.31
2022-11-27T10:35:22.796Z,65.29
2022-11-27T10:38:12.976Z,64.94
2022-11-27T10:40:45.621Z,65.51
2022-11-27T10:43:30.565Z,66.09
2022-11-27T10:46:09.388Z,65.57
2022-11-27T10:48:36.078Z,66.59
2022-11-27T10:51:02.694Z,65.94
2022-11-27T10:53:34.445Z,65.38
2022-11-27T10:56:16.680Z,63.44
2022-11-27T10:58:50.565Z,64.21
2022-11-27T11:01:19.832Z,64.79
2022-11-27T11:03:46.700Z,65.15
2022-11-27T11:06:22.287Z,64.46
2022-11-27T11:09:02.166Z,64.47
2022-11-27T11:11:28.903Z,64.40
2022-11-27T11:13:55.907Z,64.28
2022-11-27T11:16:34.740Z,64.67
2022-11-27T11:19:02.715Z,65.28
2022-11-27T11:21:35.209Z,65.39
2022-11-27T11:24:14.011Z,65.05
2022-11-27T11:26:45.485Z,66.28
2022-11-27T11:29:27.375Z,66.99
2022-11-27T11:31:55.234Z,66.45
2022-11-27T11:34:29.461Z,66.61
2022-11-27T11:37:00.418Z,66.86
2022-11-27T11:39:33.349Z,68.25
2022-11-27T11:42:00.069Z,67.29
2022-11-27T11:44:38.950Z,67.44
2022-11-27T11:47:05.990Z,67.61
2022-11-27T11:49:33.752Z,67.41
2022-11-27T11:52:21.977Z,67.19
2022-11-27T11:55:02.438Z,67.14
2022-11-27T11:58:10.493Z,66.72
2022-11-27T12:01:19.325Z,67.31
2022-11-27T12:03:38.523Z,67.82
2022-11-27T12:06:27.589Z,66.85
2022-11-27T12:09:16.259Z,67.11
2022-11-27T12:11:50.695Z,68.43
2022-11-27T12:14:39.487Z,68.95
2022-11-27T12:17:24.435Z,68.69
2022-11-27T12:20:05.934Z,68.31
2022-11-27T12:23:06.772Z,68.22
2022-11-27T12:25:40.115Z,68.33
2022-11-27T12:28:48.760Z,68.57
2022-11-27T12:31:44.241Z,68.56
2022-11-27T12:34:18.227Z,68.77
2022-11-27T12:37:13.722Z,68.10
2022-11-27T12:39:57.213Z,67.25
2022-11-27T12:42:47.992Z,67.46
2022-11-27T12:45:24.380Z,66.67
2022-11-27T12:48:02.850Z,66.47
2022-11-27T12:50:59.372Z,66.48
2022-11-27T12:53:33.426Z,67.19
2022-11-27T12:56:21.682Z,67.58
2022-11-27T12:58:56.302Z,68.16
2022-11-27T13:01:33.803Z,67.03
2022-11-27T13:04:24.913Z,66.76
2022-11-27T13:07:10.814Z,67.97
2022-11-27T13:09:45.412Z,69.21
2022-11-27T13:12:21.663Z,68.42
2022-11-27T13:14:55.694Z,67.69
2022-11-27T13:17:25.757Z,68.40
2022-11-27T13:19:52.720Z,67.33
2022-11-27T13:22:27.625Z,67.09
2022-11-27T13:24:56.039Z,67.19
2022-11-27T13:27:26.124Z,66.67
2022-11-27T13:29:55.247Z,66.58
2022-11-27T13:32:29.184Z,66.58
2022-11-27T13:34:58.372Z,66.25
2022-11-27T13:37:28.864Z,66.59
2022-11-27T13:40:19.433Z,67.20
2022-11-27T13:42:49.783Z,67.80
2022-11-27T13:45:25.829Z,66.76
2022-11-27T13:47:52.818Z,67.11
2022-11-27T13:50:23.880Z,67.01
2022-11-27T13:53:07.536Z,66.96
2022-11-27T13:55:37.151Z,66.76
2022-11-27T13:58:05.299Z,67.23
2022-11-27T14:00:33.238Z,67.21
2022-11-27T14:02:59.920Z,67.70
2022-11-27T14:05:43.760Z,68.29
2022-11-27T14:08:19.207Z,68.31
2022-11-27T14:10:52.639Z,67.99
2022-11-27T14:13:22.420Z,67.84
2022-11-27T14:16:01.985Z,68.08
2022-11-27T14:18:30.074Z,69.04
2022-11-27T14:21:02.762Z,69.22
2022-11-27T14:23:34.638Z,69.78
2022-11-27T14:26:31.441Z,69.42
2022-11-27T14:28:59.917Z,70.15
2022-11-27T14:31:35.897Z,70.46
2022-11-27T14:34:23.406Z,70.44
2022-11-27T14:36:52.419Z,70.38
2022-11-27T14:39:28.187Z,70.02
2022-11-27T14:42:00.015Z,70.39
2022-11-27T14:44:27.230Z,70.57
2022-11-27T14:46:54.878Z,70.65
2022-11-27T14:49:24.944Z,71.11
2022-11-27T14:51:53.682Z,70.94
2022-11-27T14:54:32.654Z,71.11
2022-11-27T14:56:59.277Z,70.98
2022-11-27T14:59:26.292Z,70.88
2022-11-27T15:02:14.100Z,70.94
2022-11-27T15:04:42.395Z,70.60
2022-11-27T15:07:16.350Z,70.54
2022-11-27T15:09:49.165Z,70.46
2022-11-27T15:12:23.421Z,70.38
2022-11-27T15:14:56.545Z,70.98
2022-11-27T15:17:28.635Z,70.67
2022-11-27T15:19:56.397Z,70.95
2022-11-27T15:22:23.228Z,71.03
2022-11-27T15:25:01.013Z,71.18
2022-11-27T15:27:30.784Z,70.87
2022-11-27T15:30:08.733Z,71.30
2022-11-27T15:32:51.945Z,71.83
2022-11-27T15:35:30.035Z,71.52
2022-11-27T15:37:57.671Z,71.74
2022-11-27T15:40:28.147Z,71.57
2022-11-27T15:42:54.764Z,71.51
2022-11-27T15:45:22.236Z,71.16
2022-11-27T15:47:57.462Z,71.50
2022-11-27T15:50:24.148Z,70.98
2022-11-27T15:52:50.996Z,71.15
2022-11-27T15:55:17.752Z,71.53
2022-11-27T15:57:47.648Z,71.59
2022-11-27T16:00:15.206Z,71.18
2022-11-27T16:02:41.962Z,71.39
2022-11-27T16:05:09.745Z,71.33
2022-11-27T16:07:36.537Z,71.20
2022-11-27T16:10:05.410Z,71.80
2022-11-27T16:12:32.258Z,71.83
2022-11-27T16:14:59.021Z,72.07
2022-11-27T16:17:25.722Z,72.42
2022-11-27T16:19:52.498Z,72.68
2022-11-27T16:22:19.361Z,71.91
2022-11-27T16:24:46.004Z,71.85
2022-11-27T16:27:12.747Z,71.64
2022-11-27T16:29:39.744Z,71.99
2022-11-27T16:32:06.783Z,72.23
2022-11-27T16:34:34.937Z,72.46
2022-11-27T16:37:02.722Z,72.24
2022-11-27T16:39:29.678Z,72.36
2022-11-27T16:41:56.973Z,72.44
2022-11-27T16:44:24.024Z,73.14
2022-11-27T16:46:51.304Z,73.28
2022-11-27T16:49:18.534Z,73.32
2022-11-27T16:51:45.436Z,74.10
2022-11-27T16:54:13.192Z,73.71
2022-11-27T16:56:42.157Z,74.16
2022-11-27T16:59:13.839Z,73.97
2022-11-27T17:01:42.380Z,74.39
2022-11-27T17:04:15.693Z,73.85
2022-11-27T17:06:42.514Z,74.05
2022-11-27T17:09:09.250Z,73.55
2022-11-27T17:11:37.435Z,73.97
2022-11-27T17:14:06.528Z,74.69
2022-11-27T17:16:38.887Z,74.46
2022-11-27T17:19:05.795Z,74.34
2022-11-27T17:21:34.494Z,74.84
2022-11-27T17:24:04.635Z,75.07
2022-11-27T17:26:38.690Z,74.70
2022-11-27T17:29:05.396Z,74.75
2022-11-27T17:31:33.776Z,74.61
2022-11-27T17:34:01.399Z,74.79
2022-11-27T17:36:33.785Z,74.75
2022-11-27T17:39:05.181Z,74.57
2022-11-27T17:41:31.984Z,74.52
2022-11-27T17:44:05.607Z,75.10
2022-11-27T17:46:33.047Z,75.08
2022-11-27T17:49:01.260Z,75.09
2022-11-27T17:51:30.540Z,75.19
2022-11-27T17:54:01.891Z,74.98
2022-11-27T17:56:31.412Z,75.35
2022-11-27T17:58:59.894Z,75.55
2022-11-27T18:01:29.213Z,75.59
2022-11-27T18:03:57.631Z,75.89
2022-11-27T18:06:24.424Z,75.51
2022-11-27T18:08:52.378Z,75.12
2022-11-27T18:11:21.561Z,75.39
2022-11-27T18:13:49.098Z,75.20
2022-11-27T18:16:19.225Z,74.85
2022-11-27T18:18:46.417Z,75.77
2022-11-27T18:21:18.962Z,75.98
2022-11-27T18:24:21.304Z,74.80
2022-11-27T18:27:06.758Z,75.16
2022-11-27T18:29:23.754Z,75.46
2022-11-27T18:31:51.232Z,74.65
2022-11-27T18:34:18.075Z,75.09
2022-11-27T18:36:46.092Z,75.37
2022-11-27T18:39:13.192Z,74.80
2022-11-27T18:41:39.976Z,75.22
2022-11-27T18:44:08.339Z,75.00
2022-11-27T18:46:35.311Z,74.50
2022-11-27T18:49:02.308Z,74.25
2022-11-27T18:51:29.249Z,73.78
2022-11-27T18:53:57.532Z,74.25
2022-11-27T18:56:27.877Z,74.65
2022-11-27T18:58:56.693Z,75.19
2022-11-27T19:01:33.092Z,74.52
2022-11-27T19:04:05.922Z,73.70
2022-11-27T19:06:35.183Z,73.24
2022-11-27T19:09:02.231Z,73.40
2022-11-27T19:11:30.962Z,73.48
2022-11-27T19:13:58.401Z,73.25
2022-11-27T19:16:30.323Z,72.82
2022-11-27T19:18:58.619Z,73.76
2022-11-27T19:21:28.244Z,73.42
2022-11-27T19:23:57.819Z,73.72
2022-11-27T19:26:29.901Z,73.76
2022-11-27T19:28:59.261Z,73.18
2022-11-27T19:31:27.113Z,73.17
2022-11-27T19:34:01.181Z,73.39
2022-11-27T19:36:29.963Z,73.18
2022-11-27T19:39:02.422Z,72.54
2022-11-27T19:41:30.439Z,73.24
2022-11-27T19:44:04.847Z,73.75
2022-11-27T19:46:34.297Z,73.41
2022-11-27T19:49:09.044Z,73.00
2022-11-27T19:51:37.922Z,72.99
2022-11-27T19:54:09.989Z,73.38
2022-11-27T19:56:40.211Z,73.03
2022-11-27T19:59:11.683Z,73.31
2022-11-27T20:01:41.512Z,73.52
2022-11-27T20:04:11.020Z,73.30
2022-11-27T20:06:39.199Z,73.99
2022-11-27T20:09:07.136Z,73.91
2022-11-27T20:11:35.551Z,73.47
2022-11-27T20:14:04.799Z,73.45
2022-11-27T20:16:32.779Z,72.97
2022-11-27T20:19:00.307Z,72.79
2022-11-27T20:21:27.994Z,72.31
2022-11-27T20:23:55.364Z,71.93
2022-11-27T20:26:24.669Z,73.20
2022-11-27T20:28:53.001Z,72.92
2022-11-27T20:31:28.826Z,72.83
2022-11-27T20:33:59.062Z,72.57
2022-11-27T20:36:26.108Z,72.44
2022-11-27T20:38:55.597Z,72.60
2022-11-27T20:41:23.817Z,73.32
2022-11-27T20:43:56.234Z,72.70
2022-11-27T20:46:23.149Z,73.12
2022-11-27T20:48:51.497Z,72.90
2022-11-27T20:51:25.912Z,72.45
2022-11-27T20:53:53.722Z,72.87
2022-11-27T20:56:20.533Z,72.86
2022-11-27T20:58:49.071Z,72.57
2022-11-27T21:01:26.257Z,72.92
2022-11-27T21:03:55.505Z,72.90
2022-11-27T21:06:26.989Z,72.68
2022-11-27T21:08:54.583Z,73.04
2022-11-27T21:11:25.293Z,73.18
2022-11-27T21:14:06.672Z,73.08
2022-11-27T21:16:35.594Z,72.99
2022-11-27T21:19:06.376Z,73.40
2022-11-27T21:21:33.523Z,73.07
2022-11-27T21:24:00.339Z,72.85
2022-11-27T21:26:28.080Z,73.10
2022-11-27T21:28:55.028Z,73.04
2022-11-27T21:31:26.840Z,72.99
2022-11-27T21:33:55.795Z,72.58
2022-11-27T21:36:26.536Z,73.37
2022-11-27T21:38:53.651Z,73.12
2022-11-27T21:41:21.498Z,72.66
2022-11-27T21:43:48.933Z,72.80
2022-11-27T21:46:22.626Z,72.72
2022-11-27T21:48:51.128Z,72.50
2022-11-27T21:51:21.185Z,72.59
2022-11-27T21:53:52.191Z,72.80
2022-11-27T21:56:20.372Z,72.89
2022-11-27T21:58:49.081Z,72.19
2022-11-27T22:01:19.913Z,73.14
2022-11-27T22:03:54.750Z,73.41
2022-11-27T22:06:24.693Z,72.60
2022-11-27T22:08:51.700Z,73.09
2022-11-27T22:11:21.152Z,73.37
2022-11-27T22:13:52.132Z,73.04
2022-11-27T22:16:21.517Z,73.14
2022-11-27T22:18:49.322Z,72.86
2022-11-27T22:21:16.891Z,72.71
2022-11-27T22:23:44.015Z,72.57
2022-11-27T22:26:16.087Z,72.88
2022-11-27T22:28:42.974Z,72.92
2022-11-27T22:31:16.693Z,72.94
2022-11-27T22:33:44.543Z,72.97
2022-11-27T22:36:16.885Z,73.62
2022-11-27T22:38:45.444Z,73.65
2022-11-27T22:41:12.695Z,74.04
2022-11-27T22:43:39.815Z,74.15
2022-11-27T22:46:12.782Z,73.93
2022-11-27T22:48:39.826Z,73.45
2022-11-27T22:51:08.231Z,73.32
2022-11-27T22:53:36.106Z,73.47
2022-11-27T22:56:08.136Z,73.56
2022-11-27T22:58:39.795Z,74.07
2022-11-27T23:01:09.263Z,73.49
2022-11-27T23:03:36.068Z,72.37
2022-11-27T23:06:02.713Z,73.32
2022-11-27T23:08:30.301Z,73.73
2022-11-27T23:10:56.934Z,74.55
2022-11-27T23:13:23.624Z,74.27
2022-11-27T23:15:50.239Z,73.35
2022-11-27T23:18:16.897Z,72.94
2022-11-27T23:20:44.028Z,73.05
2022-11-27T23:23:11.537Z,73.18
2022-11-27T23:25:38.754Z,72.94
2022-11-27T23:28:06.021Z,73.19
2022-11-27T23:30:33.649Z,73.24
2022-11-27T23:33:00.291Z,72.97
2022-11-27T23:35:27.942Z,73.49
2022-11-27T23:37:54.603Z,73.05
2022-11-27T23:40:21.306Z,73.00
2022-11-27T23:42:48.051Z,72.83
2022-11-27T23:45:14.662Z,72.55
2022-11-27T23:47:41.458Z,72.10
2022-11-27T23:50:08.613Z,72.53
2022-11-27T23:52:35.386Z,72.80
2022-11-27T23:55:02.119Z,73.35
2022-11-27T23:57:28.937Z,73.40
2022-11-27T23:59:55.558Z,73.16
